Time;durP1;ratioP1;P1;durP2;ratioP2;P2;SDS_P1;SDS_P2;PMS_P1;PMS_P2;Temp;Humidity;BMP_temperature;BMP_pressure;BME280_temperature;BME280_humidity;BME280_pressure;Samples;Min_cycle;Max_cycle;Signal;HPM_P1;HPM_P2
2024/01/14 00:02:24;;;;;;;18.30;12.40;;;;;;;1.69;90.60;98773.38;130478;1259;107651;-75
2024/01/14 00:05:30;;;;;;;18.70;13.40;;;;;;;1.71;90.41;98772.30;130461;1259;107640;-75
2024/01/14 00:08:35;;;;;;;14.80;9.70;;;;;;;1.72;90.44;98768.04;130493;1259;108751;-75
2024/01/14 00:11:41;;;;;;;16.00;10.10;;;;;;;1.71;90.52;98768.45;130507;1268;106850;-74
2024/01/14 00:14:46;;;;;;;15.90;9.50;;;;;;;1.67;90.45;98763.34;130462;1269;107591;-75
2024/01/14 00:17:52;;;;;;;13.60;9.40;;;;;;;1.63;90.73;98757.23;130472;1260;107425;-75
2024/01/14 00:20:57;;;;;;;13.10;8.10;;;;;;;1.62;90.93;98753.44;130422;1260;108711;-75
2024/01/14 00:24:03;;;;;;;10.50;6.60;;;;;;;1.67;90.99;98750.58;130479;1268;107685;-74
2024/01/14 00:27:09;;;;;;;15.10;9.50;;;;;;;1.73;90.91;98747.10;130519;1270;108906;-74
2024/01/14 00:30:15;;;;;;;13.70;9.10;;;;;;;1.78;90.79;98746.61;130490;1257;108421;-74
2024/01/14 00:33:21;;;;;;;9.60;6.80;;;;;;;1.78;90.64;98741.91;130483;1259;107540;-75
2024/01/14 00:36:26;;;;;;;10.00;6.80;;;;;;;1.77;90.84;98740.60;130482;1259;106310;-75
2024/01/14 00:39:32;;;;;;;11.00;8.00;;;;;;;1.77;90.78;98737.06;130492;1256;108370;-75
2024/01/14 00:42:37;;;;;;;41.80;24.50;;;;;;;1.75;90.84;98739.17;130563;1259;106169;-75
2024/01/14 00:45:43;;;;;;;13.10;8.50;;;;;;;1.73;90.78;98727.46;130477;1268;108554;-75
2024/01/14 00:48:49;;;;;;;42.20;25.40;;;;;;;1.74;90.98;98724.38;130497;1267;108516;-75
2024/01/14 00:52:01;;;;;;;30.70;16.00;;;;;;;1.78;91.03;98721.07;130484;1259;108730;-75
2024/01/14 00:55:08;;;;;;;;;;;;;;;1.82;90.95;98719.09;130521;1268;105617;-75
2024/01/14 00:58:15;;;;;;;39.10;24.40;;;;;;;1.89;90.92;98718.27;130582;1259;108496;-75
2024/01/14 01:01:20;;;;;;;34.30;21.30;;;;;;;1.91;90.71;98711.83;130520;1259;108308;-75
2024/01/14 01:04:26;;;;;;;18.30;11.70;;;;;;;1.91;90.49;98707.75;130485;1259;106709;-75
2024/01/14 01:07:31;;;;;;;15.70;11.20;;;;;;;1.87;90.67;98697.95;130448;1257;108235;-75
2024/01/14 01:10:37;;;;;;;32.70;20.40;;;;;;;1.83;90.87;98693.29;130326;1269;108574;-74
2024/01/14 01:13:42;;;;;;;32.20;21.00;;;;;;;1.80;90.82;98693.55;130437;1259;107577;-75
2024/01/14 01:16:48;;;;;;;23.80;15.90;;;;;;;1.78;90.93;98682.32;130402;1267;106689;-75
2024/01/14 01:19:53;;;;;;;23.70;16.50;;;;;;;1.80;90.83;98669.70;130467;1260;107702;-75
2024/01/14 01:22:59;;;;;;;31.10;20.80;;;;;;;1.84;90.99;98662.45;130433;1259;107152;-74
2024/01/14 01:26:04;;;;;;;24.50;16.20;;;;;;;1.88;90.87;98662.42;130440;1257;106271;-73
2024/01/14 01:29:10;;;;;;;27.70;19.70;;;;;;;1.89;90.88;98654.31;130529;1259;107126;-74
2024/01/14 01:32:16;;;;;;;16.20;11.50;;;;;;;1.89;90.81;98649.35;130482;1260;106630;-74
2024/01/14 01:35:22;;;;;;;18.30;12.30;;;;;;;1.85;90.93;98648.92;130457;1268;106442;-74
2024/01/14 01:38:27;;;;;;;22.10;14.10;;;;;;;1.81;90.98;98646.78;130460;1259;108594;-73
2024/01/14 01:41:33;;;;;;;30.90;20.30;;;;;;;1.81;91.02;98648.55;130522;1259;107607;-74
2024/01/14 01:44:38;;;;;;;25.80;16.40;;;;;;;1.82;91.18;98643.90;130487;1267;107612;-74
2024/01/14 01:47:44;;;;;;;46.50;31.40;;;;;;;1.85;91.17;98638.00;130455;1260;108764;-75
2024/01/14 01:50:52;;;;;;;21.40;14.40;;;;;;;1.91;91.02;98636.60;130449;1259;108657;-75
2024/01/14 01:53:58;;;;;;;46.80;27.10;;;;;;;1.94;90.97;98625.46;130492;1259;107670;-75
2024/01/14 01:57:04;;;;;;;76.70;40.90;;;;;;;1.91;91.09;98619.05;130572;1258;108652;-74
2024/01/14 02:00:13;;;;;;;51.10;29.20;;;;;;;1.87;91.07;98617.52;130446;1260;108695;-75
2024/01/14 02:03:19;;;;;;;34.20;20.80;;;;;;;1.83;91.11;98611.42;130492;1259;108344;-75
2024/01/14 02:06:26;;;;;;;46.20;30.50;;;;;;;1.78;91.10;98607.94;130442;1260;107485;-73
2024/01/14 02:09:32;;;;;;;20.50;14.70;;;;;;;1.82;91.07;98596.04;130467;1259;107712;-75
2024/01/14 02:12:38;;;;;;;37.40;28.20;;;;;;;1.88;91.06;98583.06;130584;1259;106650;-73
2024/01/14 02:15:43;;;;;;;22.10;16.90;;;;;;;1.88;91.02;98591.61;130481;1259;107593;-74
2024/01/14 02:18:49;;;;;;;25.10;19.80;;;;;;;1.89;90.73;98588.02;130482;1268;107792;-75
2024/01/14 02:22:04;;;;;;;14.10;11.30;;;;;;;1.88;90.72;98594.10;130482;1257;108746;-75
2024/01/14 02:25:11;;;;;;;14.00;9.30;;;;;;;1.87;90.71;98588.37;130502;1259;106260;-74
2024/01/14 02:28:19;;;;;;;18.80;13.70;;;;;;;1.86;90.73;98586.35;130515;1259;107668;-74
2024/01/14 02:31:26;;;;;;;13.70;9.60;;;;;;;1.87;90.73;98579.33;130509;1260;108738;-75
2024/01/14 02:34:32;;;;;;;12.70;8.00;;;;;;;1.87;90.57;98578.38;130457;1259;108861;-75
2024/01/14 02:37:43;;;;;;;13.70;9.10;;;;;;;1.88;90.54;98574.30;130504;1259;107545;-75
2024/01/14 02:40:49;;;;;;;13.10;9.10;;;;;;;1.92;90.71;98570.00;130473;1267;107731;-75
2024/01/14 02:43:54;;;;;;;11.10;8.00;;;;;;;1.93;90.53;98564.67;130522;1258;106819;-75
2024/01/14 02:47:00;;;;;;;13.70;10.40;;;;;;;1.92;90.80;98566.85;130464;1260;105462;-73
2024/01/14 02:50:06;;;;;;;17.90;12.90;;;;;;;1.92;90.92;98566.70;130495;1258;108537;-73
2024/01/14 02:53:12;;;;;;;14.30;10.70;;;;;;;1.89;90.82;98562.95;130481;1259;107695;-74
2024/01/14 02:56:18;;;;;;;10.90;8.50;;;;;;;1.86;91.03;98562.19;130479;1259;107493;-74
2024/01/14 02:59:24;;;;;;;20.70;14.60;;;;;;;1.84;91.01;98557.45;130532;1269;108327;-73
2024/01/14 03:02:29;;;;;;;22.00;15.00;;;;;;;1.88;91.12;98553.04;130509;1260;106408;-74
2024/01/14 03:05:35;;;;;;;26.80;21.00;;;;;;;1.93;91.09;98543.98;130481;1258;106428;-74
2024/01/14 03:08:40;;;;;;;19.70;15.50;;;;;;;1.99;90.82;98538.19;130487;1260;107725;-75
2024/01/14 03:11:47;;;;;;;22.70;17.90;;;;;;;2.01;90.74;98527.15;130508;1259;105310;-77
2024/01/14 03:14:52;;;;;;;17.00;13.70;;;;;;;2.01;90.51;98529.60;130465;1267;108507;-75
2024/01/14 03:17:58;;;;;;;14.30;11.20;;;;;;;2.00;90.55;98526.07;130494;1263;107555;-74
2024/01/14 03:21:04;;;;;;;16.40;11.20;;;;;;;1.93;90.21;98517.69;130490;1269;108743;-73
2024/01/14 03:24:09;;;;;;;14.90;10.00;;;;;;;1.88;90.29;98509.27;130476;1261;106823;-73
2024/01/14 03:27:15;;;;;;;15.30;10.80;;;;;;;1.86;90.47;98509.23;130545;1257;106517;-78
2024/01/14 03:30:20;;;;;;;17.90;12.20;;;;;;;1.89;90.41;98508.91;130482;1267;108728;-74
2024/01/14 03:33:26;;;;;;;16.10;11.40;;;;;;;1.95;90.43;98510.45;130455;1260;108361;-73
2024/01/14 03:36:31;;;;;;;11.10;8.00;;;;;;;1.99;90.46;98509.45;130408;1257;121387;-74
2024/01/14 03:39:37;;;;;;;11.30;8.80;;;;;;;1.98;90.61;98511.31;130442;1259;107777;-74
2024/01/14 03:42:42;;;;;;;13.30;9.60;;;;;;;1.95;90.65;98506.46;130525;1259;106413;-74
2024/01/14 03:45:48;;;;;;;14.90;11.30;;;;;;;1.92;90.92;98507.23;130508;1260;106983;-75
2024/01/14 03:48:53;;;;;;;10.50;7.90;;;;;;;1.90;90.94;98499.71;130498;1260;107564;-74
2024/01/14 03:51:59;;;;;;;12.50;9.20;;;;;;;1.92;91.23;98496.89;130486;1263;106329;-75
2024/01/14 03:55:05;;;;;;;13.30;10.00;;;;;;;1.95;91.11;98489.77;130492;1260;108826;-74
2024/01/14 03:58:11;;;;;;;9.80;7.50;;;;;;;2.01;91.03;98489.14;130537;1268;106903;-75
2024/01/14 04:01:19;;;;;;;10.00;7.50;;;;;;;2.05;90.96;98488.77;130472;1261;108740;-75
2024/01/14 04:04:24;;;;;;;10.90;8.00;;;;;;;2.02;91.00;98491.80;130456;1261;108908;-73
2024/01/14 04:07:30;;;;;;;9.40;7.60;;;;;;;1.96;90.89;98492.02;130471;1260;106978;-74
2024/01/14 04:10:36;;;;;;;13.60;8.70;;;;;;;1.93;90.92;98492.25;130485;1260;107214;-74
2024/01/14 04:13:41;;;;;;;10.40;6.70;;;;;;;1.89;90.84;98489.61;130513;1267;108702;-74
2024/01/14 04:16:47;;;;;;;10.50;7.40;;;;;;;1.88;90.81;98491.02;130477;1257;107849;-75
2024/01/14 04:19:53;;;;;;;8.40;5.80;;;;;;;1.89;90.67;98485.13;130475;1261;108707;-72
2024/01/14 04:22:58;;;;;;;7.90;5.80;;;;;;;1.95;90.44;98480.33;130443;1260;106721;-75
2024/01/14 04:26:07;;;;;;;9.00;6.50;;;;;;;1.97;90.44;98481.74;130463;1260;107324;-75
2024/01/14 04:29:12;;;;;;;11.00;7.60;;;;;;;2.02;90.18;98472.53;130521;1257;108603;-74
2024/01/14 04:32:18;;;;;;;23.00;16.70;;;;;;;2.04;90.20;98470.61;130462;1268;107496;-74
2024/01/14 04:35:23;;;;;;;113.90;44.60;;;;;;;2.04;90.25;98468.98;130469;1259;108023;-74
2024/01/14 04:38:29;;;;;;;209.30;72.10;;;;;;;1.99;90.14;98462.80;130452;1260;107952;-74
2024/01/14 04:41:34;;;;;;;518.60;180.90;;;;;;;1.97;90.30;98463.66;130506;1260;107797;-75
2024/01/14 04:44:40;;;;;;;196.30;59.00;;;;;;;1.99;90.48;98466.27;130520;1260;107683;-75
2024/01/14 04:47:46;;;;;;;458.60;135.00;;;;;;;2.04;90.32;98467.41;130483;1260;107581;-75
2024/01/14 04:50:53;;;;;;;259.20;65.60;;;;;;;2.06;90.05;98465.81;130497;1260;106305;-75
2024/01/14 04:53:58;;;;;;;572.10;174.80;;;;;;;2.07;90.01;98465.92;130532;1259;107117;-75
2024/01/14 04:57:04;;;;;;;412.40;116.80;;;;;;;2.08;90.03;98465.84;130439;1260;108665;-74
2024/01/14 05:00:13;;;;;;;387.80;106.10;;;;;;;2.08;89.93;98461.58;130483;1259;106163;-75
2024/01/14 05:03:19;;;;;;;371.40;117.90;;;;;;;2.06;89.89;98462.83;130503;1261;106833;-75
2024/01/14 05:06:24;;;;;;;62.50;24.70;;;;;;;2.04;89.66;98464.46;130454;1258;105620;-75
2024/01/14 05:09:30;;;;;;;261.90;93.20;;;;;;;2.02;89.81;98457.58;130515;1257;107336;-74
2024/01/14 05:12:35;;;;;;;242.30;97.90;;;;;;;2.04;89.93;98454.79;130540;1268;108861;-74
2024/01/14 05:15:41;;;;;;;212.20;87.20;;;;;;;2.08;90.05;98455.09;130496;1260;108703;-75
2024/01/14 05:18:47;;;;;;;67.50;30.60;;;;;;;2.11;89.89;98452.70;130447;1258;108395;-72
2024/01/14 05:21:54;;;;;;;32.50;17.80;;;;;;;2.14;89.65;98450.30;130456;1260;107503;-73
2024/01/14 05:25:00;;;;;;;23.40;14.10;;;;;;;2.12;89.84;98450.16;130492;1267;108610;-75
2024/01/14 05:28:06;;;;;;;15.60;9.90;;;;;;;2.09;89.67;98453.77;130532;1257;108749;-75
2024/01/14 05:31:11;;;;;;;14.90;10.40;;;;;;;2.05;89.74;98453.14;130497;1266;108732;-75
2024/01/14 05:34:17;;;;;;;9.20;5.40;;;;;;;2.05;89.96;98454.02;130444;1260;106680;-75
2024/01/14 05:37:22;;;;;;;9.60;5.80;;;;;;;2.08;89.84;98460.52;130464;1259;107480;-75
2024/01/14 05:40:28;;;;;;;74.90;38.00;;;;;;;2.11;89.67;98455.84;130475;1260;108727;-74
2024/01/14 05:43:33;;;;;;;22.80;12.20;;;;;;;2.12;89.75;98460.71;130490;1260;107805;-74
2024/01/14 05:46:39;;;;;;;19.10;11.70;;;;;;;2.09;89.77;98457.65;130499;1260;107585;-74
2024/01/14 05:49:44;;;;;;;36.30;21.30;;;;;;;2.06;89.60;98457.05;130478;1260;108492;-74
2024/01/14 05:52:50;;;;;;;50.00;26.10;;;;;;;2.03;89.75;98452.79;130435;1260;108677;-75
2024/01/14 05:55:55;;;;;;;14.90;10.40;;;;;;;2.00;89.61;98449.94;130420;1260;108750;-74
2024/01/14 05:59:01;;;;;;;34.70;21.40;;;;;;;1.98;89.86;98448.36;130516;1260;107648;-74
2024/01/14 06:02:06;;;;;;;28.00;18.40;;;;;;;2.01;89.80;98444.02;130457;1259;108565;-74
2024/01/14 06:05:12;;;;;;;65.40;37.70;;;;;;;2.05;89.58;98442.20;130480;1257;107621;-74
2024/01/14 06:08:18;;;;;;;34.00;21.40;;;;;;;2.06;89.73;98440.42;130473;1260;107770;-73
2024/01/14 06:11:23;;;;;;;28.00;18.90;;;;;;;2.06;89.92;98439.40;130500;1259;108650;-75
2024/01/14 06:14:29;;;;;;;55.70;36.00;;;;;;;2.03;90.06;98439.64;130516;1260;106251;-74
2024/01/14 06:17:34;;;;;;;73.40;40.70;;;;;;;2.00;90.08;98439.26;130451;1260;106813;-75
2024/01/14 06:20:40;;;;;;;46.80;20.70;;;;;;;1.94;90.29;98437.26;130428;1260;107617;-74
2024/01/14 06:23:45;;;;;;;56.20;26.80;;;;;;;1.94;90.22;98440.10;130493;1260;108762;-74
2024/01/14 06:26:54;;;;;;;46.90;22.60;;;;;;;1.94;90.12;98442.05;130880;1259;107766;-73
2024/01/14 06:30:01;;;;;;;21.60;11.00;;;;;;;1.95;90.01;98445.41;130600;1262;106703;-73
2024/01/14 06:33:07;;;;;;;54.00;27.70;;;;;;;1.92;90.13;98446.21;130670;1260;108495;-74
2024/01/14 06:36:12;;;;;;;42.60;23.10;;;;;;;1.88;90.02;98452.94;130748;1257;107186;-73
2024/01/14 06:39:18;;;;;;;55.50;25.30;;;;;;;1.85;90.14;98455.00;130486;1260;107727;-75
2024/01/14 06:42:23;;;;;;;56.60;26.20;;;;;;;1.84;90.23;98461.75;130512;1267;106608;-75
2024/01/14 06:45:29;;;;;;;53.60;26.10;;;;;;;1.85;90.25;98462.35;130532;1260;106317;-75
2024/01/14 06:48:35;;;;;;;52.30;23.70;;;;;;;1.93;90.02;98468.10;130574;1270;107433;-75
2024/01/14 06:51:45;;;;;;;32.30;16.60;;;;;;;1.94;89.62;98466.55;130610;1256;108390;-75
2024/01/14 06:54:51;;;;;;;54.20;22.60;;;;;;;1.97;89.57;98463.19;130808;1258;106238;-75
2024/01/14 06:57:56;;;;;;;134.70;57.40;;;;;;;1.94;89.15;98464.61;130763;1259;105869;-73
2024/01/14 07:01:03;;;;;;;165.40;76.50;;;;;;;1.90;89.26;98465.22;130561;1258;107553;-74
2024/01/14 07:04:09;;;;;;;76.50;35.10;;;;;;;1.87;89.23;98468.63;130810;1259;108861;-76
2024/01/14 07:07:14;;;;;;;49.20;24.00;;;;;;;1.86;89.17;98478.70;130626;1256;106342;-75
2024/01/14 07:10:20;;;;;;;32.80;15.90;;;;;;;1.91;89.36;98483.19;130888;1257;108310;-75
2024/01/14 07:13:25;;;;;;;91.30;44.50;;;;;;;1.98;89.32;98478.63;130596;1267;107160;-75
2024/01/14 07:16:32;;;;;;;75.00;34.80;;;;;;;2.06;89.38;98471.48;130708;1258;108643;-74
2024/01/14 07:19:41;;;;;;;44.70;21.70;;;;;;;2.09;88.97;98469.27;130586;1254;108593;-75
2024/01/14 07:22:46;;;;;;;113.80;57.50;;;;;;;2.09;88.77;98466.29;130668;1257;108500;-74
2024/01/14 07:25:52;;;;;;;49.40;25.90;;;;;;;2.09;88.90;98463.65;130679;1259;106981;-75
2024/01/14 07:28:58;;;;;;;41.50;24.60;;;;;;;2.07;88.94;98464.17;130550;1260;108646;-76
2024/01/14 07:32:03;;;;;;;39.80;23.00;;;;;;;2.03;88.81;98466.69;130577;1257;108583;-75
2024/01/14 07:35:10;;;;;;;26.60;16.00;;;;;;;2.03;89.32;98469.16;130561;1257;106697;-75
2024/01/14 07:38:15;;;;;;;49.80;29.30;;;;;;;2.09;89.35;98469.39;130478;1261;108787;-74
2024/01/14 07:41:21;;;;;;;45.20;27.40;;;;;;;2.15;88.94;98468.30;130451;1259;108639;-74
2024/01/14 07:44:27;;;;;;;30.60;19.70;;;;;;;2.19;88.54;98472.02;130549;1258;106414;-74
2024/01/14 07:47:32;;;;;;;20.10;13.70;;;;;;;2.19;88.49;98467.60;130511;1259;108753;-74
2024/01/14 07:50:38;;;;;;;28.60;20.10;;;;;;;2.20;88.63;98468.97;130475;1257;107067;-75
2024/01/14 07:53:43;;;;;;;12.20;8.30;;;;;;;2.22;88.56;98468.39;130521;1258;107425;-74
2024/01/14 07:56:49;;;;;;;45.20;31.00;;;;;;;2.21;88.28;98466.15;130609;1259;108724;-74
2024/01/14 07:59:54;;;;;;;14.20;9.10;;;;;;;2.23;88.42;98466.76;130516;1260;108472;-74
2024/01/14 08:03:00;;;;;;;23.60;13.60;;;;;;;2.26;88.41;98467.23;130472;1261;106518;-74
2024/01/14 08:06:07;;;;;;;158.40;57.00;;;;;;;2.32;88.19;98470.17;130445;1260;108234;-74
2024/01/14 08:09:12;;;;;;;128.90;48.10;;;;;;;2.37;88.08;98468.88;130487;1261;107555;-74
2024/01/14 08:12:18;;;;;;;72.00;29.50;;;;;;;2.38;88.77;98469.34;130469;1259;108760;-74
2024/01/14 08:15:23;;;;;;;75.90;37.20;;;;;;;2.43;88.62;98472.75;130521;1260;106846;-74
2024/01/14 08:18:29;;;;;;;79.40;36.00;;;;;;;2.51;88.45;98467.59;130490;1259;107756;-74
2024/01/14 08:21:34;;;;;;;47.70;23.20;;;;;;;2.62;88.13;98460.05;130467;1270;106892;-75
2024/01/14 08:24:43;;;;;;;12.40;6.50;;;;;;;2.67;87.25;98467.92;130475;1270;106956;-75
2024/01/14 08:27:50;;;;;;;51.80;26.90;;;;;;;2.56;86.62;98465.18;130593;1257;107865;-76
2024/01/14 08:30:56;;;;;;;38.70;21.70;;;;;;;2.53;87.51;98476.14;130718;1258;108624;-75
2024/01/14 08:34:03;;;;;;;29.10;18.90;;;;;;;2.55;87.35;98472.48;130463;1258;107600;-75
2024/01/14 08:37:09;;;;;;;43.00;29.00;;;;;;;2.54;87.22;98478.72;130441;1259;107177;-75
2024/01/14 08:40:16;;;;;;;33.80;21.90;;;;;;;2.48;87.35;98471.00;130560;1259;107274;-74
2024/01/14 08:43:22;;;;;;;17.30;12.00;;;;;;;2.45;86.86;98476.27;130531;1258;107693;-75
2024/01/14 08:46:29;;;;;;;14.80;7.30;;;;;;;2.38;86.13;98478.67;130498;1259;106128;-75
2024/01/14 08:49:34;;;;;;;58.90;32.10;;;;;;;2.37;86.81;98477.15;130445;1256;107501;-75
2024/01/14 08:52:40;;;;;;;13.90;8.70;;;;;;;2.45;86.98;98474.60;130462;1259;106332;-75
2024/01/14 08:55:45;;;;;;;57.70;31.60;;;;;;;2.55;87.22;98480.48;130612;1260;107898;-73
2024/01/14 08:58:51;;;;;;;40.40;24.00;;;;;;;2.65;86.77;98486.11;130489;1260;106756;-73
2024/01/14 09:01:57;;;;;;;36.80;21.90;;;;;;;2.75;87.01;98488.64;130459;1260;107905;-74
2024/01/14 09:05:02;;;;;;;23.70;15.20;;;;;;;2.74;85.87;98491.20;130468;1259;108544;-75
2024/01/14 09:08:09;;;;;;;58.80;33.70;;;;;;;2.71;86.47;98490.77;130664;1258;106530;-75
2024/01/14 09:11:15;;;;;;;16.10;9.50;;;;;;;2.78;86.85;98487.66;130490;1259;108740;-75
2024/01/14 09:14:21;;;;;;;11.40;6.60;;;;;;;2.86;86.58;98490.98;130536;1258;108547;-74
2024/01/14 09:17:26;;;;;;;25.20;16.90;;;;;;;2.90;86.22;98487.35;130546;1266;106415;-75
2024/01/14 09:20:32;;;;;;;9.80;5.40;;;;;;;2.99;86.36;98491.28;130520;1259;107218;-74
2024/01/14 09:23:38;;;;;;;24.20;16.80;;;;;;;2.99;86.20;98493.86;130632;1262;106947;-74
2024/01/14 09:26:43;;;;;;;14.80;7.50;;;;;;;3.03;86.41;98495.48;130576;1259;107677;-74
2024/01/14 09:29:49;;;;;;;55.20;27.10;;;;;;;2.94;85.42;98499.66;130533;1260;106194;-74
2024/01/14 09:32:54;;;;;;;37.80;19.40;;;;;;;2.89;86.03;98498.86;130520;1257;107518;-74
2024/01/14 09:36:08;;;;;;;27.20;14.90;;;;;;;2.94;86.27;98493.02;130554;1259;108396;-74
2024/01/14 09:39:14;;;;;;;35.90;18.70;;;;;;;2.98;86.23;98493.63;130522;1261;106396;-74
2024/01/14 09:42:28;;;;;;;39.80;22.80;;;;;;;3.10;86.27;98490.91;130475;1260;108661;-74
2024/01/14 09:45:35;;;;;;;39.60;21.30;;;;;;;3.20;85.88;98488.18;130548;1260;108703;-74
2024/01/14 09:48:41;;;;;;;64.30;36.30;;;;;;;3.27;85.82;98482.06;130561;1260;107835;-74
2024/01/14 09:51:49;;;;;;;35.70;19.90;;;;;;;3.29;85.28;98481.70;130623;1257;107260;-74
2024/01/14 09:54:55;;;;;;;90.80;54.00;;;;;;;3.25;85.50;98483.71;130504;1260;106371;-74
2024/01/14 09:58:02;;;;;;;23.30;12.50;;;;;;;3.15;85.71;98482.13;130514;1261;108440;-74
2024/01/14 10:01:10;;;;;;;25.00;15.50;;;;;;;3.03;85.55;98474.52;130493;1256;108528;-74
2024/01/14 10:04:18;;;;;;;28.00;16.10;;;;;;;2.93;85.93;98481.17;130512;1259;107269;-75
2024/01/14 10:07:25;;;;;;;45.20;26.00;;;;;;;2.90;85.98;98482.30;130612;1260;108611;-74
2024/01/14 10:10:32;;;;;;;25.30;15.20;;;;;;;2.92;86.01;98479.09;130503;1256;107764;-74
2024/01/14 10:13:38;;;;;;;23.60;14.00;;;;;;;2.92;85.67;98483.86;130599;1259;108545;-74
2024/01/14 10:16:44;;;;;;;33.80;21.70;;;;;;;2.87;85.03;98486.15;130570;1259;108720;-74
2024/01/14 10:19:54;;;;;;;29.80;17.50;;;;;;;2.82;85.45;98484.29;130670;1254;108712;-74
2024/01/14 10:23:00;;;;;;;21.80;13.60;;;;;;;2.86;85.55;98486.07;130578;1268;108659;-74
2024/01/14 10:26:06;;;;;;;10.30;6.20;;;;;;;2.88;85.05;98496.54;130570;1258;107744;-74
2024/01/14 10:29:12;;;;;;;36.00;21.80;;;;;;;2.81;84.23;98487.92;130583;1258;108636;-74
2024/01/14 10:32:17;;;;;;;44.70;23.60;;;;;;;2.74;84.59;98482.05;130506;1257;108738;-74
2024/01/14 10:35:26;;;;;;;11.20;6.10;;;;;;;2.76;84.38;98473.26;130545;1259;106647;-74
2024/01/14 10:38:32;;;;;;;32.50;20.40;;;;;;;2.83;84.17;98472.61;130509;1254;107168;-74
2024/01/14 10:41:37;;;;;;;13.50;8.40;;;;;;;2.94;84.43;98479.75;130526;1260;108705;-74
2024/01/14 10:44:43;;;;;;;12.60;7.60;;;;;;;2.93;83.18;98479.67;130577;1259;108773;-74
2024/01/14 10:47:53;;;;;;;14.30;8.80;;;;;;;2.85;82.88;98473.81;130557;1259;107787;-74
2024/01/14 10:51:04;;;;;;;28.10;16.80;;;;;;;2.84;83.15;98472.73;130609;1256;106821;-74
2024/01/14 10:54:20;;;;;;;30.90;18.70;;;;;;;2.90;83.63;98469.98;130503;1259;106936;-74
2024/01/14 10:57:34;;;;;;;46.80;27.70;;;;;;;2.96;83.02;98467.45;130475;1259;106538;-74
2024/01/14 11:00:44;;;;;;;14.90;9.40;;;;;;;2.92;82.86;98473.11;130642;1254;106645;-74
2024/01/14 11:03:52;;;;;;;8.20;4.80;;;;;;;2.83;82.34;98475.44;130530;1259;107161;-74
2024/01/14 11:06:58;;;;;;;42.30;24.30;;;;;;;2.76;82.74;98468.19;130659;1256;106790;-74
2024/01/14 11:10:05;;;;;;;16.30;9.40;;;;;;;2.73;82.81;98470.50;130578;1253;106614;-72
2024/01/14 11:13:23;;;;;;;15.10;9.00;;;;;;;2.70;82.36;98471.41;130605;1254;108450;-73
2024/01/14 11:16:37;;;;;;;22.30;14.70;;;;;;;2.62;82.37;98473.95;130565;1257;107724;-73
2024/01/14 11:19:44;;;;;;;25.40;14.20;;;;;;;2.56;82.75;98469.42;130638;1253;106488;-75
2024/01/14 11:22:52;;;;;;;12.30;7.50;;;;;;;2.52;83.12;98472.61;130524;1258;106742;-73
2024/01/14 11:25:58;;;;;;;18.80;10.60;;;;;;;2.48;82.86;98475.92;130498;1259;107034;-72
2024/01/14 11:29:04;;;;;;;27.80;16.60;;;;;;;2.49;83.02;98471.65;130774;1255;108538;-73
2024/01/14 11:32:12;;;;;;;26.60;17.20;;;;;;;2.54;83.11;98475.54;130632;1260;109075;-73
2024/01/14 11:35:34;;;;;;;37.60;19.30;;;;;;;2.62;82.99;98473.38;130675;1255;108523;-73
2024/01/14 11:38:55;;;;;;;16.10;8.50;;;;;;;2.66;82.63;98473.70;130533;1255;108253;-73
2024/01/14 11:42:01;;;;;;;32.70;21.40;;;;;;;2.67;82.70;98477.23;130543;1256;107565;-72
2024/01/14 11:45:32;;;;;;;35.70;22.90;;;;;;;2.72;82.93;98471.34;130585;1257;106598;-72
2024/01/14 11:48:39;;;;;;;25.30;15.10;;;;;;;2.81;83.18;98465.61;130550;1256;108698;-72
2024/01/14 11:51:57;;;;;;;14.00;8.40;;;;;;;2.83;82.16;98468.04;130625;1259;107481;-72
2024/01/14 11:55:06;;;;;;;21.70;14.00;;;;;;;2.81;82.13;98467.15;130532;1259;106634;-73
2024/01/14 11:58:14;;;;;;;10.50;5.90;;;;;;;2.84;81.76;98467.08;130843;1254;107796;-74
2024/01/14 12:01:23;;;;;;;9.20;5.50;;;;;;;2.92;82.20;98464.30;130686;1259;107581;-70
2024/01/14 12:04:30;;;;;;;10.90;5.90;;;;;;;3.02;81.54;98463.95;130583;1259;108621;-72
2024/01/14 12:07:35;;;;;;;9.60;4.50;;;;;;;3.03;81.17;98468.71;130657;1256;106836;-73
2024/01/14 12:10:42;;;;;;;11.40;6.60;;;;;;;3.07;81.45;98461.89;130502;1260;107692;-72
2024/01/14 12:13:47;;;;;;;8.90;4.90;;;;;;;3.12;81.29;98467.21;130559;1258;107282;-73
2024/01/14 12:16:53;;;;;;;12.10;8.30;;;;;;;3.09;80.53;98471.97;130583;1259;108738;-73
2024/01/14 12:19:59;;;;;;;89.10;37.80;;;;;;;3.00;80.13;98469.23;130577;1259;106479;-74
2024/01/14 12:23:06;;;;;;;87.00;36.80;;;;;;;2.95;80.91;98467.93;130469;1257;108763;-77
2024/01/14 12:26:12;;;;;;;36.00;15.90;;;;;;;2.92;80.66;98472.84;130475;1259;106510;-75
2024/01/14 12:29:18;;;;;;;49.20;19.90;;;;;;;2.87;81.14;98475.55;130625;1259;107968;-76
2024/01/14 12:32:23;;;;;;;30.40;13.70;;;;;;;2.87;80.77;98475.20;130552;1261;106530;-75
2024/01/14 12:35:37;;;;;;;11.70;5.70;;;;;;;2.87;80.59;98480.16;130527;1258;108592;-75
2024/01/14 12:38:42;;;;;;;57.00;24.50;;;;;;;2.87;81.20;98474.55;130577;1257;109015;-76
2024/01/14 12:41:48;;;;;;;18.30;7.20;;;;;;;2.91;80.96;98477.20;130508;1256;107755;-78
2024/01/14 12:44:54;;;;;;;58.60;27.60;;;;;;;2.86;80.29;98474.48;130576;1259;108810;-73
2024/01/14 12:48:04;;;;;;;21.20;10.10;;;;;;;2.79;80.57;98473.39;130515;1254;108658;-73
2024/01/14 12:51:10;;;;;;;40.70;19.60;;;;;;;2.76;80.94;98470.10;130580;1257;106814;-74
2024/01/14 12:54:21;;;;;;;27.60;14.80;;;;;;;2.79;80.96;98473.41;130520;1259;106904;-72
2024/01/14 12:57:28;;;;;;;35.30;17.90;;;;;;;2.76;81.00;98466.11;130587;1259;107457;-72
2024/01/14 13:00:35;;;;;;;32.50;14.60;;;;;;;2.72;81.28;98470.09;130584;1257;107477;-72
2024/01/14 13:03:41;;;;;;;30.00;14.30;;;;;;;2.69;81.02;98469.52;130626;1257;108536;-72
2024/01/14 13:06:47;;;;;;;33.40;16.30;;;;;;;2.57;81.02;98468.06;130533;1258;107931;-72
2024/01/14 13:09:53;;;;;;;31.10;14.80;;;;;;;2.52;81.18;98471.38;130697;1259;106154;-74
2024/01/14 13:12:59;;;;;;;87.50;40.40;;;;;;;2.46;81.31;98468.95;130512;1261;108591;-75
2024/01/14 13:16:06;;;;;;;117.80;60.90;;;;;;;2.49;81.48;98472.73;130545;1257;108819;-75
2024/01/14 13:19:11;;;;;;;171.80;95.30;;;;;;;2.56;81.61;98470.96;130535;1260;108419;-75
2024/01/14 13:22:17;;;;;;;45.10;25.30;;;;;;;2.64;81.58;98470.05;130486;1262;109673;-75
2024/01/14 13:25:22;;;;;;;36.00;18.60;;;;;;;2.67;81.12;98472.20;130536;1256;106526;-75
2024/01/14 13:28:28;;;;;;;37.60;23.60;;;;;;;2.64;81.12;98476.21;130525;1257;108720;-77
2024/01/14 13:31:37;;;;;;;34.90;21.20;;;;;;;2.62;81.64;98479.02;130588;1257;106385;-75
2024/01/14 13:34:43;;;;;;;55.70;33.70;;;;;;;2.60;81.26;98479.39;130646;1257;108567;-75
2024/01/14 13:37:48;;;;;;;66.40;36.70;;;;;;;2.57;81.54;98478.59;130552;1256;108571;-74
2024/01/14 13:40:54;;;;;;;59.00;28.00;;;;;;;2.53;81.48;98478.25;130735;1261;107093;-75
2024/01/14 13:44:00;;;;;;;48.00;21.90;;;;;;;2.48;81.37;98478.21;130576;1259;106564;-75
2024/01/14 13:47:06;;;;;;;98.10;45.30;;;;;;;2.50;81.58;98474.55;130564;1256;106720;-78
2024/01/14 13:50:12;;;;;;;114.30;54.90;;;;;;;2.56;81.54;98478.19;130563;1257;108387;-75
2024/01/14 13:53:19;;;;;;;70.60;33.60;;;;;;;2.60;81.30;98472.38;130576;1259;106980;-75
2024/01/14 13:56:25;;;;;;;39.30;18.00;;;;;;;2.61;81.08;98478.90;130743;1256;106718;-75
2024/01/14 13:59:32;;;;;;;104.00;42.80;;;;;;;2.58;81.36;98479.03;130546;1259;107179;-74
2024/01/14 14:02:38;;;;;;;175.40;85.90;;;;;;;2.60;81.44;98480.04;130597;1257;107105;-75
2024/01/14 14:05:48;;;;;;;80.40;38.60;;;;;;;2.60;81.34;98489.92;130538;1259;107747;-77
2024/01/14 14:08:54;;;;;;;51.00;26.00;;;;;;;2.54;81.44;98484.31;130522;1256;106958;-76
2024/01/14 14:11:59;;;;;;;67.10;34.80;;;;;;;2.55;81.58;98484.42;130527;1258;108563;-77